Latest Weather Observations for Mackay Airport

IDQ60801

Issued at 7:05 am EST Thursday 23 October 2014 (issued every 30 minutes, with the page automatically refreshed every 10 minutes)

About weather observations | Map of weather stations | Latest weather observations for QLD | Other Formats
Station Details ID: 033045 Name: MACKAY AERO Lat: -21.17 Lon: 149.18 Height: 4.7 m
Data from the previous 72 hours. | See also: Recent months at Mackay Airport
Date/Time
EST
Temp
°C
App
Temp
°C
Dew
Point
Rel
Hum
%
Delta-T
°C
Wind Press
QNH
hPa
Press
MSL
hPa
Rain
since 9 am
mm
Dir
 
Spd
km/h
Gust
km/h
Spd
kts
Gust
kts
23/07:00am 20.7 20.0 17.3 81 2.1 S 17 20 9 11 1020.1 1020.1 0.0
23/06:30am 18.5 18.6 16.5 88 1.2 SSW 11 15 6 8 1019.9 1019.9 0.0
23/06:00am 16.8 16.1 15.5 92 0.8 SSW 13 15 7 8 1019.8 1019.8 0.0
23/05:30am 16.2 15.2 14.7 91 0.9 SSW 13 17 7 9 1019.5 1019.5 0.0
23/05:00am 15.3 14.4 13.8 91 0.8 SW 11 13 6 7 1019.3 1019.3 0.0
23/04:30am 15.7 14.6 14.2 91 0.9 SW 13 15 7 8 1019.2 1019.2 0.0
23/04:00am 16.4 15.6 14.1 86 1.3 S 11 13 6 7 1019.1 1019.1 0.0
23/03:30am 18.1 17.4 15.5 85 1.5 S 13 15 7 8 1019.1 1019.1 0.0
23/03:00am 18.0 16.9 15.4 85 1.5 S 15 17 8 9 1019.1 1019.1 0.0
23/02:30am 17.7 16.9 15.0 84 1.6 SSW 13 17 7 9 1019.4 1019.4 0.0
23/02:00am 20.3 19.5 16.1 77 2.5 SE 15 19 8 10 1019.6 1019.6 0.0
23/01:30am 21.8 20.5 17.2 75 2.8 ESE 20 28 11 15 1020.0 1020.0 0.0
23/01:00am 22.2 20.5 17.3 74 3.0 ESE 22 28 12 15 1020.4 1020.4 0.0
23/12:30am 22.0 20.7 16.7 72 3.2 E 19 24 10 13 1020.7 1020.7 0.0
23/12:00am 22.2 20.6 16.5 70 3.5 ESE 20 28 11 15 1020.9 1020.9 0.0
 
Date/Time
EST
Temp
°C
App
Temp
°C
Dew
Point
Rel
Hum
%
Delta-T
°C
Wind Press
QNH
hPa
Press
MSL
hPa
Rain
since 9 am
mm
Dir
 
Spd
km/h
Gust
km/h
Spd
kts
Gust
kts
22/11:30pm 22.1 20.0 16.1 69 3.6 E 22 28 12 15 1021.1 1021.1 0.0
22/11:00pm 22.1 20.0 16.1 69 3.6 ESE 22 30 12 16 1021.2 1021.2 0.0
22/10:30pm 22.6 19.8 15.4 64 4.3 ESE 24 32 13 17 1021.2 1021.2 0.0
22/10:00pm 22.5 18.8 14.9 62 4.5 ESE 28 35 15 19 1021.1 1021.1 0.0
22/09:30pm 22.4 18.4 15.3 64 4.2 ESE 30 39 16 21 1021.1 1021.1 0.0
22/09:00pm 22.4 18.9 15.5 65 4.1 ESE 28 37 15 20 1021.0 1021.0 0.0
22/08:30pm 22.3 18.9 15.9 67 3.9 ESE 28 35 15 19 1020.7 1020.7 0.0
22/08:00pm 22.4 18.7 16.0 67 3.8 ESE 30 39 16 21 1020.6 1020.6 0.0
22/07:30pm 22.4 18.6 15.7 66 4.0 ESE 30 37 16 20 1020.4 1020.4 0.0
22/07:00pm 22.3 19.4 16.1 68 3.7 ESE 26 32 14 17 1020.2 1020.2 0.0
22/06:30pm 22.5 20.0 17.2 72 3.3 ESE 26 33 14 18 1020.1 1020.1 0.0
22/06:00pm 23.0 20.4 16.8 68 3.8 ESE 26 33 14 18 1019.8 1019.8 0.0
22/05:30pm 23.5 20.5 16.8 66 4.1 ESE 28 35 15 19 1019.7 1019.7 0.0
22/05:00pm 24.1 21.0 16.6 63 4.6 ESE 28 35 15 19 1019.3 1019.3 0.0
22/04:30pm 24.9 21.3 17.1 62 4.8 ESE 32 39 17 21 1019.1 1019.1 0.0
22/04:00pm 25.8 22.6 17.2 59 5.3 ESE 30 35 16 19 1018.9 1018.9 0.0
22/03:30pm 25.6 22.1 16.4 56 5.7 ESE 30 35 16 19 1018.8 1018.8 0.0
22/03:00pm 25.7 22.3 17.6 61 5.1 ESE 32 39 17 21 1019.0 1019.0 0.0
22/02:30pm 25.9 22.5 17.8 61 5.1 ESE 32 41 17 22 1019.0 1019.0 0.0
22/02:00pm 26.7 23.6 18.3 60 5.3 SE 32 39 17 21 1019.5 1019.5 0.0
22/01:30pm 26.0 22.7 17.9 61 5.1 SE 32 39 17 21 1019.7 1019.7 0.0
22/01:00pm 26.3 23.5 17.4 58 5.6 SE 28 35 15 19 1020.0 1020.0 0.0
22/12:30pm 27.1 24.8 18.4 59 5.5 SE 28 35 15 19 1020.4 1020.4 0.0
22/12:00pm 26.6 24.6 18.2 60 5.3 ESE 26 33 14 18 1020.8 1020.8 0.0
22/11:30am 26.9 24.9 18.2 59 5.5 SE 26 32 14 17 1021.2 1021.2 0.0
22/11:00am 26.4 23.2 16.3 53 6.2 ESE 28 37 15 20 1021.6 1021.6 0.0
22/10:30am 27.1 24.8 17.6 56 6.0 SE 26 32 14 17 1021.9 1021.9 0.0
22/10:00am 26.4 23.4 16.9 56 5.9 SE 28 35 15 19 1022.0 1022.0 0.0
22/09:30am 25.3 21.7 15.3 54 6.0 SE 28 32 15 17 1022.2 1022.2 0.0
22/09:00am 25.4 22.1 15.1 53 6.2 ESE 26 32 14 17 1022.2 1022.2 1.6
22/08:30am 25.7 22.5 15.4 53 6.2 ESE 26 35 14 19 1022.3 1022.3 1.6
22/08:00am 25.2 21.4 15.8 56 5.7 ESE 30 37 16 20 1022.1 1022.1 1.6
22/07:30am 24.4 20.4 15.3 57 5.5 ESE 30 37 16 20 1021.9 1021.9 1.6
22/07:00am 23.8 20.3 15.6 60 4.9 ESE 28 35 15 19 1021.5 1021.5 1.6
22/06:30am 23.0 19.2 15.8 64 4.3 ESE 30 37 16 20 1021.3 1021.3 1.6
22/06:00am 22.3 18.4 15.6 66 4.0 ESE 30 37 16 20 1021.0 1021.0 1.6
22/05:30am 21.6 17.6 15.2 67 3.8 ESE 30 37 16 20 1020.8 1020.8 1.6
22/05:00am 21.8 17.2 15.2 66 3.9 SE 33 39 18 21 1020.6 1020.6 1.6
22/04:30am 21.5 17.9 15.3 68 3.7 ESE 28 39 15 21 1020.5 1020.5 1.6
22/04:00am 21.5 18.2 16.0 71 3.3 ESE 28 37 15 20 1020.4 1020.4 1.6
22/03:30am 21.2 18.1 15.5 70 3.4 ESE 26 33 14 18 1020.5 1020.5 1.6
22/03:00am 21.5 17.3 15.8 70 3.4 SE 32 39 17 21 1020.4 1020.4 1.6
22/02:30am 21.5 17.9 16.2 72 3.2 SE 30 37 16 20 1020.7 1020.7 1.6
22/02:00am 21.7 17.5 16.2 71 3.3 SE 33 41 18 22 1020.8 1020.8 1.6
22/01:30am 21.7 17.7 16.2 71 3.3 SE 32 41 17 22 1021.2 1021.2 1.6
22/01:00am 21.8 17.8 16.1 70 3.4 SE 32 41 17 22 1021.6 1021.6 1.6
22/12:30am 22.0 17.9 16.5 71 3.3 ESE 33 44 18 24 1021.9 1021.9 1.6
22/12:00am 22.2 18.4 16.7 71 3.3 SE 32 41 17 22 1022.3 1022.3 1.6
 
Date/Time
EST
Temp
°C
App
Temp
°C
Dew
Point
Rel
Hum
%
Delta-T
°C
Wind Press
QNH
hPa
Press
MSL
hPa
Rain
since 9 am
mm
Dir
 
Spd
km/h
Gust
km/h
Spd
kts
Gust
kts
21/11:30pm 22.2 18.6 17.1 73 3.1 SE 32 39 17 21 1022.8 1022.8 1.6
21/11:00pm 21.9 17.9 16.8 73 3.1 ESE 33 46 18 25 1022.8 1022.8 1.6
21/10:30pm 22.0 17.5 16.3 70 3.4 SE 35 46 19 25 1022.7 1022.7 1.6
21/10:00pm 22.1 18.3 17.2 74 3.0 ESE 33 43 18 23 1022.8 1022.8 1.6
21/09:30pm 22.4 18.9 17.8 75 2.9 ESE 33 44 18 24 1022.7 1022.7 1.6
21/09:00pm 22.3 18.2 17.4 74 3.0 ESE 35 44 19 24 1022.7 1022.7 1.6
21/08:30pm 22.3 18.6 17.4 74 3.0 ESE 33 43 18 23 1022.5 1022.5 1.6
21/08:00pm 22.2 18.0 17.1 73 3.1 ESE 35 46 19 25 1022.3 1022.3 1.6
21/07:30pm 22.3 18.7 17.7 75 2.9 ESE 33 43 18 23 1022.2 1022.2 1.6
21/07:00pm 22.4 17.9 17.3 73 3.1 SE 37 46 20 25 1021.9 1021.9 1.6
21/06:30pm 22.5 17.9 17.2 72 3.3 ESE 37 46 20 25 1021.6 1021.6 1.6
21/06:00pm 22.7 19.2 17.4 72 3.3 ESE 32 43 17 23 1021.3 1021.3 1.6
21/05:30pm 23.2 19.1 16.5 66 4.1 ESE 33 44 18 24 1021.0 1021.0 1.6
21/05:00pm 23.8 19.5 16.8 65 4.3 ESE 35 44 19 24 1020.8 1020.8 1.6
21/04:30pm 24.3 20.1 17.1 64 4.5 ESE 35 43 19 23 1020.6 1020.6 1.6
21/04:00pm 24.8 20.5 17.0 62 4.8 ESE 35 46 19 25 1020.4 1020.4 1.6
21/03:30pm 25.2 21.3 17.9 64 4.6 SE 35 44 19 24 1020.5 1020.5 1.6
21/03:00pm 25.1 20.7 17.6 63 4.7 SE 37 44 20 24 1020.5 1020.5 1.6
21/02:30pm 24.8 22.0 19.0 70 3.7 SE 32 43 17 23 1020.8 1020.8 1.6
21/02:00pm 23.4 20.0 17.6 70 3.6 SE 32 41 17 22 1021.2 1021.2 1.6
21/01:30pm 21.7 21.6 20.0 90 1.1 ENE 20 32 11 17 1021.6 1021.6 1.6
21/01:18pm 21.0 20.1 19.1 89 1.2 E 22 30 12 16 1021.7 1021.7 1.6
21/01:00pm 20.2 17.1 18.3 89 1.2 E 32 46 17 25 1022.1 1022.1 1.4
21/12:43pm 21.8 18.6 18.6 82 2.0 ESE 33 43 18 23 1022.1 1022.1 0.2
21/12:30pm 25.3 22.3 18.7 67 4.2 E 32 39 17 21 1022.1 1022.1 0.0
21/12:00pm 25.7 21.2 16.3 56 5.8 SE 35 44 19 24 1022.3 1022.3 0.0
21/11:30am 26.5 22.0 14.9 49 7.0 SE 32 41 17 22 1022.6 1022.6 0.0
21/11:00am 27.1 22.4 15.8 50 6.9 SE 35 44 19 24 1022.7 1022.7 0.0
21/10:30am 26.7 22.0 14.8 48 7.2 ESE 33 43 18 23 1022.9 1022.9 0.0
21/10:00am 27.2 22.6 15.2 47 7.3 ESE 33 44 18 24 1023.0 1023.0 0.0
21/09:30am 26.0 21.9 16.5 55 5.9 ESE 33 43 18 23 1022.8 1022.8 0.0
21/09:00am 25.3 22.4 18.0 64 4.6 SE 30 37 16 20 1022.7 1022.7 0.8
21/08:30am 23.5 23.0 19.2 77 2.7 SSE 20 28 11 15 1022.6 1022.6 0.8
21/08:00am 21.7 20.9 18.5 82 2.0 S 20 26 11 14 1022.6 1022.6 0.8
21/07:30am 21.8 20.6 17.6 77 2.6 S 20 28 11 15 1022.3 1022.3 0.2
21/07:00am 20.6 19.7 17.8 84 1.7 S 19 24 10 13 1021.9 1021.9 0.2
21/06:30am 20.3 19.2 17.7 85 1.6 S 20 32 11 17 1021.4 1021.4 0.2
21/06:00am 18.9 17.9 16.7 87 1.3 S 17 20 9 11 1021.0 1021.0 0.2
21/05:53am 19.2 17.9 16.8 86 1.4 S 19 26 10 14 1020.9 1020.9 0.2
21/05:39am 18.5 17.2 15.9 85 1.5 S 17 33 9 18 1021.0 1021.0 0.2
21/05:30am 18.6 17.9 15.5 82 1.8 S 13 17 7 9 1020.8 1020.8 0.0
21/05:00am 17.8 17.0 15.1 84 1.6 SSW 13 17 7 9 1020.4 1020.4 0.0
21/04:30am 18.5 18.1 15.2 81 1.9 S 11 13 6 7 1020.3 1020.3 0.0
21/04:00am 18.8 18.2 15.7 82 1.8 S 13 17 7 9 1020.2 1020.2 0.0
21/03:30am 18.2 17.1 15.3 83 1.7 SSW 15 17 8 9 1020.2 1020.2 0.0
21/03:00am 18.6 18.4 15.7 83 1.7 S 11 15 6 8 1020.1 1020.1 0.0
21/02:30am 19.5 19.0 15.0 75 2.6 SSE 11 22 6 12 1020.2 1020.2 0.0
21/02:00am 21.6 19.4 15.9 70 3.4 ESE 22 30 12 16 1020.2 1020.2 0.0
21/01:30am 21.7 19.1 15.8 69 3.5 ESE 24 30 13 16 1020.4 1020.4 0.0
21/01:00am 21.8 19.1 16.5 72 3.2 ESE 26 33 14 18 1020.8 1020.8 0.0
21/12:30am 21.8 19.4 16.5 72 3.2 ESE 24 32 13 17 1021.2 1021.2 0.0
21/12:00am 22.0 18.8 16.3 70 3.4 ESE 28 33 15 18 1021.6 1021.6 0.0
 
Date/Time
EST
Temp
°C
App
Temp
°C
Dew
Point
Rel
Hum
%
Delta-T
°C
Wind Press
QNH
hPa
Press
MSL
hPa
Rain
since 9 am
mm
Dir
 
Spd
km/h
Gust
km/h
Spd
kts
Gust
kts
20/11:30pm 22.0 18.4 16.3 70 3.4 ESE 30 37 16 20 1022.0 1022.0 0.0
20/11:00pm 22.3 19.3 16.8 71 3.3 ESE 28 35 15 19 1022.4 1022.4 0.0
20/10:30pm 22.1 18.7 16.8 72 3.2 ESE 30 37 16 20 1022.4 1022.4 0.0
20/10:00pm 22.3 19.1 17.2 73 3.1 ESE 30 37 16 20 1022.4 1022.4 0.0
20/09:30pm 22.4 18.8 17.1 72 3.3 ESE 32 39 17 21 1022.5 1022.5 0.0
20/09:00pm 22.5 19.4 17.4 73 3.1 ESE 30 37 16 20 1022.3 1022.3 0.0
20/08:30pm 22.4 19.9 17.1 72 3.3 ESE 26 32 14 17 1022.2 1022.2 0.0
20/08:00pm 22.6 20.2 17.3 72 3.3 ESE 26 33 14 18 1021.8 1021.8 0.0
20/07:30pm 22.7 21.0 18.0 75 2.9 ESE 24 32 13 17 1021.4 1021.4 0.0
20/07:00pm 22.8 20.1 17.5 72 3.3 ESE 28 35 15 19 1021.1 1021.1 0.0
20/06:30pm 22.8 20.9 17.7 73 3.2 ESE 24 32 13 17 1020.7 1020.7 0.0
20/06:00pm 23.0 21.2 17.9 73 3.2 ESE 24 32 13 17 1020.3 1020.3 0.0
20/05:30pm 23.6 21.4 17.8 70 3.6 ESE 26 33 14 18 1019.9 1019.9 0.0
20/05:00pm 23.6 21.2 17.3 67 3.9 ESE 26 35 14 19 1019.5 1019.5 0.0
20/04:30pm 24.2 20.9 17.0 64 4.4 ESE 30 37 16 20 1019.2 1019.2 0.0
20/04:00pm 25.5 22.5 17.7 62 4.9 ESE 30 39 16 21 1019.0 1019.0 0.0
20/03:30pm 25.9 22.7 18.1 62 4.9 ESE 32 37 17 20 1019.1 1019.1 0.0
20/03:00pm 25.2 21.6 16.3 57 5.4 ESE 30 37 16 20 1019.1 1019.1 0.0
20/02:30pm 26.5 22.6 16.4 53 6.2 ESE 32 37 17 20 1019.5 1019.5 0.0
20/02:00pm 25.9 21.8 16.5 56 5.8 ESE 33 41 18 22 1019.7 1019.7 0.0
20/01:30pm 25.9 21.5 16.7 57 5.7 SE 35 43 19 23 1020.1 1020.1 0.0
20/01:00pm 26.3 22.3 16.8 56 5.9 SE 33 44 18 24 1020.7 1020.7 0.0
20/12:30pm 26.0 21.8 17.1 58 5.5 SE 35 44 19 24 1021.1 1021.1 0.0
20/12:00pm 27.1 23.9 18.7 60 5.4 SE 33 41 18 22 1021.6 1021.6 0.0
20/11:30am 25.9 22.0 17.0 58 5.5 SE 33 41 18 22 1021.8 1021.8 0.0
20/11:00am 26.2 21.9 17.0 57 5.7 SE 35 43 19 23 1022.2 1022.2 0.0
20/10:30am 25.7 21.4 15.4 53 6.2 SE 32 43 17 23 1022.6 1022.6 0.0
20/10:00am 26.1 21.7 16.6 55 5.8 SE 35 43 19 23 1022.9 1022.9 0.0
20/09:30am 24.8 20.7 16.0 58 5.4 SE 32 39 17 21 1023.2 1023.2 0.0
20/09:00am 24.6 20.7 15.5 57 5.5 SE 30 39 16 21 1023.3 1023.3 0.0
20/08:30am 25.0 22.2 17.2 62 4.8 SSE 28 37 15 20 1023.0 1023.0 0.0
20/08:00am 23.8 21.3 16.1 62 4.7 S 24 35 13 19 1022.9 1022.9 0.0
20/07:30am 23.3 21.8 15.4 61 4.7 S 17 24 9 13 1022.8 1022.8 0.0

Other Formats:

Comma delimited format used in spreadsheet applications
http://www.bom.gov.au/fwo/IDQ60801/IDQ60801.95367.axf

JavaScript Object Notation format (JSON) in row-major order
http://www.bom.gov.au/fwo/IDQ60801/IDQ60801.95367.json